PWSweather.com
Personal Weather Stations
Station Observations
APRSFL1
Magnolia Valley, New Port Richey, FL 34653

Magnolia ValleyNew Port Richey, FL 34653

Lat: 28.26, Lon: -82.688

Elevation: 19

Station Type: Davis Vantage Pro 2 Plus with 70ft high Webcam

http://www.aprsfl.net/weather

Latest ConditionsUpdated 8:15:07 AM EDT Thursday, Jun 29, 2017
Currently Today's Max Today's Min Today's Average
Temperature 76.3°F24.6°C 76.3°F24.6°C 74.0°F23.3°C 74.5°F23.6°C
Dew Point 75.4°F24.1°C 75.4°F24.1°C 72.8°F22.7°C 73.3°F22.9°C
Winds Calm Calm Calm ECalm E - Calm Calm
Wind Gusts -- -- - -
Humidity 97% 97% 95% 96%
Pressure 30.12 in1020.0 mb 30.13 in1020.3 mb 30.08 in1018.6 mb -
Hour Temp Dew Point Humidity Winds Wind Gusts Pressure Precip Precip Rate Daily Precip Total
08:15 AM 76.3°F24.6°C 75.4°F24.1°C 97% Calm Calm -- 30.12 in1020.0 mb 0.00 in0.0 mm 0.00 in0.0 mm 0.01 in0.3 mm
08:10 AM 76.1°F24.5°C 75.2°F24.0°C 97% Calm Calm -- 30.12 in1020.0 mb 0.00 in0.0 mm 0.00 in0.0 mm 0.01 in0.3 mm
08:05 AM 76.0°F24.4°C 75.1°F23.9°C 97% Calm Calm -- 30.12 in1020.0 mb 0.00 in0.0 mm 0.00 in0.0 mm 0.01 in0.3 mm
08:00 AM 75.9°F24.4°C 75.0°F23.9°C 97% Calm Calm -- 30.13 in1020.3 mb 0.00 in0.0 mm 0.00 in0.0 mm 0.01 in0.3 mm
07:55 AM 75.7°F24.3°C 74.8°F23.8°C 97% Calm Calm -- 30.13 in1020.3 mb 0.00 in0.0 mm 0.00 in0.0 mm 0.01 in0.3 mm
07:50 AM 75.6°F24.2°C 74.7°F23.7°C 97% Calm Calm -- 30.12 in1020.0 mb 0.00 in0.0 mm 0.00 in0.0 mm 0.01 in0.3 mm
07:45 AM 75.6°F24.2°C 74.7°F23.7°C 97% Calm Calm -- 30.12 in1020.0 mb 0.00 in0.0 mm 0.00 in0.0 mm 0.01 in0.3 mm
07:40 AM 75.4°F24.1°C 74.5°F23.6°C 97% Calm Calm -- 30.12 in1020.0 mb 0.00 in0.0 mm 0.00 in0.0 mm 0.01 in0.3 mm
07:35 AM 75.2°F24.0°C 74.3°F23.5°C 97% Calm Calm -- 30.12 in1020.0 mb 0.00 in0.0 mm 0.00 in0.0 mm 0.01 in0.3 mm
07:30 AM 75.1°F23.9°C 74.2°F23.4°C 97% Calm Calm -- 30.12 in1020.0 mb 0.00 in0.0 mm 0.00 in0.0 mm 0.01 in0.3 mm
07:25 AM 75.0°F23.9°C 74.1°F23.4°C 97% Calm Calm -- 30.12 in1020.0 mb 0.00 in0.0 mm 0.00 in0.0 mm 0.01 in0.3 mm
07:20 AM 74.9°F23.8°C 74.0°F23.3°C 97% Calm Calm -- 30.12 in1020.0 mb 0.00 in0.0 mm 0.00 in0.0 mm 0.01 in0.3 mm
07:15 AM 74.8°F23.8°C 73.9°F23.3°C 97% Calm Calm -- 30.12 in1020.0 mb 0.00 in0.0 mm 0.00 in0.0 mm 0.01 in0.3 mm
07:10 AM 74.7°F23.7°C 73.8°F23.2°C 97% Calm Calm -- 30.12 in1020.0 mb 0.00 in0.0 mm 0.00 in0.0 mm 0.01 in0.3 mm
07:05 AM 74.6°F23.7°C 73.7°F23.2°C 97% Calm Calm -- 30.11 in1019.6 mb 0.00 in0.0 mm 0.00 in0.0 mm 0.01 in0.3 mm
07:00 AM 74.5°F23.6°C 73.6°F23.1°C 97% Calm Calm -- 30.11 in1019.6 mb 0.00 in0.0 mm 0.00 in0.0 mm 0.01 in0.3 mm
06:55 AM 74.4°F23.6°C 73.5°F23.1°C 97% Calm Calm -- 30.11 in1019.6 mb 0.00 in0.0 mm 0.00 in0.0 mm 0.01 in0.3 mm
06:50 AM 74.4°F23.6°C 73.5°F23.1°C 97% Calm Calm -- 30.11 in1019.6 mb 0.00 in0.0 mm 0.00 in0.0 mm 0.01 in0.3 mm
06:45 AM 74.3°F23.5°C 73.4°F23.0°C 97% Calm Calm -- 30.10 in1019.3 mb 0.00 in0.0 mm 0.00 in0.0 mm 0.01 in0.3 mm
06:40 AM 74.3°F23.5°C 73.4°F23.0°C 97% Calm Calm -- 30.10 in1019.3 mb 0.00 in0.0 mm 0.00 in0.0 mm 0.01 in0.3 mm
06:35 AM 74.3°F23.5°C 73.4°F23.0°C 97% Calm Calm -- 30.10 in1019.3 mb 0.00 in0.0 mm 0.00 in0.0 mm 0.01 in0.3 mm
06:30 AM 74.3°F23.5°C 73.4°F23.0°C 97% Calm Calm -- 30.10 in1019.3 mb 0.00 in0.0 mm 0.00 in0.0 mm 0.01 in0.3 mm
06:25 AM 74.3°F23.5°C 73.4°F23.0°C 97% Calm Calm -- 30.10 in1019.3 mb 0.00 in0.0 mm 0.00 in0.0 mm 0.01 in0.3 mm
06:20 AM 74.2°F23.4°C 73.3°F22.9°C 97% Calm Calm -- 30.10 in1019.3 mb 0.00 in0.0 mm 0.00 in0.0 mm 0.01 in0.3 mm
06:15 AM 74.2°F23.4°C 73.3°F22.9°C 97% Calm Calm -- 30.10 in1019.3 mb 0.00 in0.0 mm 0.00 in0.0 mm 0.01 in0.3 mm
06:10 AM 74.2°F23.4°C 73.3°F22.9°C 97% Calm Calm -- 30.10 in1019.3 mb 0.00 in0.0 mm 0.00 in0.0 mm 0.01 in0.3 mm
06:05 AM 74.2°F23.4°C 73.3°F22.9°C 97% Calm Calm -- 30.10 in1019.3 mb 0.00 in0.0 mm 0.00 in0.0 mm 0.01 in0.3 mm
06:00 AM 74.1°F23.4°C 73.2°F22.9°C 97% Calm Calm -- 30.09 in1019.0 mb 0.00 in0.0 mm 0.00 in0.0 mm 0.01 in0.3 mm
05:55 AM 74.1°F23.4°C 73.2°F22.9°C 97% Calm Calm -- 30.09 in1019.0 mb 0.00 in0.0 mm 0.00 in0.0 mm 0.01 in0.3 mm
05:50 AM 74.0°F23.3°C 73.1°F22.8°C 97% Calm Calm -- 30.09 in1019.0 mb 0.00 in0.0 mm 0.00 in0.0 mm 0.01 in0.3 mm
05:45 AM 74.0°F23.3°C 73.1°F22.8°C 97% Calm Calm -- 30.09 in1019.0 mb 0.00 in0.0 mm 0.00 in0.0 mm 0.01 in0.3 mm
05:40 AM 74.0°F23.3°C 73.1°F22.8°C 97% Calm Calm -- 30.09 in1019.0 mb 0.00 in0.0 mm 0.00 in0.0 mm 0.01 in0.3 mm
05:35 AM 74.0°F23.3°C 73.1°F22.8°C 97% Calm Calm -- 30.09 in1019.0 mb 0.00 in0.0 mm 0.00 in0.0 mm 0.01 in0.3 mm
05:30 AM 74.0°F23.3°C 73.1°F22.8°C 97% Calm Calm -- 30.09 in1019.0 mb 0.00 in0.0 mm 0.00 in0.0 mm 0.01 in0.3 mm
05:25 AM 74.0°F23.3°C 73.1°F22.8°C 97% Calm Calm -- 30.09 in1019.0 mb 0.00 in0.0 mm 0.00 in0.0 mm 0.01 in0.3 mm
05:20 AM 74.0°F23.3°C 73.1°F22.8°C 97% Calm Calm -- 30.09 in1019.0 mb 0.00 in0.0 mm 0.00 in0.0 mm 0.01 in0.3 mm
05:15 AM 74.0°F23.3°C 73.1°F22.8°C 97% Calm Calm -- 30.09 in1019.0 mb 0.00 in0.0 mm 0.00 in0.0 mm 0.01 in0.3 mm
05:10 AM 74.0°F23.3°C 72.8°F22.7°C 96% Calm Calm -- 30.09 in1019.0 mb 0.00 in0.0 mm 0.00 in0.0 mm 0.01 in0.3 mm
05:05 AM 74.0°F23.3°C 72.8°F22.7°C 96% Calm Calm -- 30.09 in1019.0 mb 0.00 in0.0 mm 0.00 in0.0 mm 0.01 in0.3 mm
05:00 AM 74.0°F23.3°C 72.8°F22.7°C 96% Calm Calm -- 30.09 in1019.0 mb 0.00 in0.0 mm 0.00 in0.0 mm 0.01 in0.3 mm
04:55 AM 74.0°F23.3°C 72.8°F22.7°C 96% Calm Calm -- 30.09 in1019.0 mb 0.00 in0.0 mm 0.00 in0.0 mm 0.01 in0.3 mm
04:50 AM 74.0°F23.3°C 72.8°F22.7°C 96% Calm Calm -- 30.09 in1019.0 mb 0.00 in0.0 mm 0.00 in0.0 mm 0.01 in0.3 mm
04:45 AM 74.0°F23.3°C 72.8°F22.7°C 96% Calm Calm -- 30.09 in1019.0 mb 0.00 in0.0 mm 0.00 in0.0 mm 0.01 in0.3 mm
04:40 AM 74.0°F23.3°C 72.8°F22.7°C 96% Calm Calm -- 30.09 in1019.0 mb 0.00 in0.0 mm 0.00 in0.0 mm 0.01 in0.3 mm
04:35 AM 74.0°F23.3°C 72.8°F22.7°C 96% Calm Calm -- 30.09 in1019.0 mb 0.00 in0.0 mm 0.00 in0.0 mm 0.01 in0.3 mm
04:30 AM 74.1°F23.4°C 72.9°F22.7°C 96% Calm Calm -- 30.09 in1019.0 mb 0.00 in0.0 mm 0.00 in0.0 mm 0.01 in0.3 mm
04:25 AM 74.1°F23.4°C 72.9°F22.7°C 96% Calm Calm -- 30.08 in1018.6 mb 0.00 in0.0 mm 0.00 in0.0 mm 0.01 in0.3 mm
04:20 AM 74.1°F23.4°C 72.9°F22.7°C 96% Calm Calm -- 30.09 in1019.0 mb 0.00 in0.0 mm 0.00 in0.0 mm 0.01 in0.3 mm
04:15 AM 74.1°F23.4°C 72.9°F22.7°C 96% Calm Calm -- 30.09 in1019.0 mb 0.00 in0.0 mm 0.00 in0.0 mm 0.01 in0.3 mm
04:10 AM 74.1°F23.4°C 72.9°F22.7°C 96% Calm Calm -- 30.08 in1018.6 mb 0.00 in0.0 mm 0.00 in0.0 mm 0.01 in0.3 mm
04:05 AM 74.0°F23.3°C 72.8°F22.7°C 96% Calm Calm -- 30.09 in1019.0 mb 0.00 in0.0 mm 0.00 in0.0 mm 0.01 in0.3 mm
04:00 AM 74.1°F23.4°C 72.9°F22.7°C 96% Calm Calm -- 30.09 in1019.0 mb 0.00 in0.0 mm 0.00 in0.0 mm 0.01 in0.3 mm
03:55 AM 74.1°F23.4°C 72.9°F22.7°C 96% Calm Calm -- 30.09 in1019.0 mb 0.00 in0.0 mm 0.00 in0.0 mm 0.01 in0.3 mm
03:50 AM 74.2°F23.4°C 73.0°F22.8°C 96% Calm Calm -- 30.09 in1019.0 mb 0.00 in0.0 mm 0.00 in0.0 mm 0.01 in0.3 mm
03:45 AM 74.2°F23.4°C 73.0°F22.8°C 96% Calm Calm -- 30.08 in1018.6 mb 0.00 in0.0 mm 0.00 in0.0 mm 0.01 in0.3 mm
03:40 AM 74.2°F23.4°C 73.0°F22.8°C 96% Calm Calm -- 30.09 in1019.0 mb 0.00 in0.0 mm 0.00 in0.0 mm 0.01 in0.3 mm
03:35 AM 74.2°F23.4°C 73.0°F22.8°C 96% Calm Calm -- 30.09 in1019.0 mb 0.00 in0.0 mm 0.00 in0.0 mm 0.01 in0.3 mm
03:30 AM 74.2°F23.4°C 73.0°F22.8°C 96% Calm Calm -- 30.08 in1018.6 mb 0.00 in0.0 mm 0.00 in0.0 mm 0.01 in0.3 mm
03:25 AM 74.2°F23.4°C 73.0°F22.8°C 96% Calm Calm -- 30.09 in1019.0 mb 0.00 in0.0 mm 0.00 in0.0 mm 0.01 in0.3 mm
03:20 AM 74.1°F23.4°C 72.9°F22.7°C 96% Calm Calm -- 30.09 in1019.0 mb 0.00 in0.0 mm 0.00 in0.0 mm 0.01 in0.3 mm
03:15 AM 74.1°F23.4°C 72.9°F22.7°C 96% Calm Calm -- 30.09 in1019.0 mb 0.00 in0.0 mm 0.00 in0.0 mm 0.01 in0.3 mm
03:10 AM 74.1°F23.4°C 72.9°F22.7°C 96% Calm Calm -- 30.09 in1019.0 mb 0.00 in0.0 mm 0.00 in0.0 mm 0.01 in0.3 mm
03:05 AM 74.0°F23.3°C 72.8°F22.7°C 96% Calm Calm -- 30.09 in1019.0 mb 0.00 in0.0 mm 0.00 in0.0 mm 0.01 in0.3 mm
03:00 AM 74.0°F23.3°C 72.8°F22.7°C 96% Calm Calm -- 30.09 in1019.0 mb 0.00 in0.0 mm 0.00 in0.0 mm 0.01 in0.3 mm
02:55 AM 74.1°F23.4°C 72.9°F22.7°C 96% Calm Calm -- 30.09 in1019.0 mb 0.00 in0.0 mm 0.00 in0.0 mm 0.01 in0.3 mm
02:50 AM 74.1°F23.4°C 72.9°F22.7°C 96% Calm Calm -- 30.09 in1019.0 mb 0.00 in0.0 mm 0.00 in0.0 mm 0.01 in0.3 mm
02:45 AM 74.1°F23.4°C 72.9°F22.7°C 96% Calm Calm -- 30.09 in1019.0 mb 0.00 in0.0 mm 0.00 in0.0 mm 0.01 in0.3 mm
02:40 AM 74.2°F23.4°C 73.0°F22.8°C 96% Calm Calm -- 30.09 in1019.0 mb 0.00 in0.0 mm 0.00 in0.0 mm 0.01 in0.3 mm
02:35 AM 74.2°F23.4°C 73.0°F22.8°C 96% Calm Calm -- 30.10 in1019.3 mb 0.00 in0.0 mm 0.00 in0.0 mm 0.01 in0.3 mm
02:30 AM 74.3°F23.5°C 73.1°F22.8°C 96% Calm Calm -- 30.10 in1019.3 mb 0.00 in0.0 mm 0.00 in0.0 mm 0.01 in0.3 mm
02:25 AM 74.3°F23.5°C 73.1°F22.8°C 96% Calm Calm -- 30.10 in1019.3 mb 0.01 in0.3 mm 0.00 in0.0 mm 0.01 in0.3 mm
02:20 AM 74.3°F23.5°C 73.1°F22.8°C 96% Calm Calm -- 30.09 in1019.0 mb 0.01 in0.3 mm 0.00 in0.0 mm 0.01 in0.3 mm
02:15 AM 74.4°F23.6°C 73.2°F22.9°C 96% Calm Calm -- 30.09 in1019.0 mb 0.01 in0.3 mm 0.00 in0.0 mm 0.01 in0.3 mm
02:10 AM 74.4°F23.6°C 73.2°F22.9°C 96% Calm Calm -- 30.10 in1019.3 mb 0.01 in0.3 mm 0.00 in0.0 mm 0.01 in0.3 mm
02:05 AM 74.4°F23.6°C 73.2°F22.9°C 96% Calm Calm -- 30.10 in1019.3 mb 0.01 in0.3 mm 0.00 in0.0 mm 0.01 in0.3 mm
02:00 AM 74.4°F23.6°C 73.2°F22.9°C 96% Calm Calm -- 30.10 in1019.3 mb 0.01 in0.3 mm 0.00 in0.0 mm 0.01 in0.3 mm
01:55 AM 74.4°F23.6°C 73.2°F22.9°C 96% Calm Calm -- 30.10 in1019.3 mb 0.01 in0.3 mm 0.00 in0.0 mm 0.01 in0.3 mm
01:50 AM 74.5°F23.6°C 73.3°F22.9°C 96% Calm Calm -- 30.10 in1019.3 mb 0.01 in0.3 mm 0.00 in0.0 mm 0.01 in0.3 mm
01:45 AM 74.5°F23.6°C 73.3°F22.9°C 96% Calm Calm -- 30.10 in1019.3 mb 0.01 in0.3 mm 0.00 in0.0 mm 0.01 in0.3 mm
01:40 AM 74.5°F23.6°C 73.3°F22.9°C 96% Calm Calm -- 30.10 in1019.3 mb 0.01 in0.3 mm 0.00 in0.0 mm 0.01 in0.3 mm
01:35 AM 74.5°F23.6°C 73.3°F22.9°C 96% Calm Calm -- 30.10 in1019.3 mb 0.01 in0.3 mm 0.00 in0.0 mm 0.01 in0.3 mm
01:30 AM 74.5°F23.6°C 73.3°F22.9°C 96% Calm Calm -- 30.10 in1019.3 mb 0.01 in0.3 mm 0.00 in0.0 mm 0.01 in0.3 mm
01:25 AM 74.6°F23.7°C 73.4°F23.0°C 96% Calm Calm -- 30.10 in1019.3 mb 0.01 in0.3 mm 0.00 in0.0 mm 0.01 in0.3 mm
01:20 AM 74.6°F23.7°C 73.4°F23.0°C 96% Calm Calm -- 30.10 in1019.3 mb 0.01 in0.3 mm 0.00 in0.0 mm 0.01 in0.3 mm
01:15 AM 74.6°F23.7°C 73.4°F23.0°C 96% Calm Calm -- 30.10 in1019.3 mb 0.01 in0.3 mm 0.12 in3.0 mm 0.01 in0.3 mm
01:10 AM 74.6°F23.7°C 73.4°F23.0°C 96% Calm Calm -- 30.10 in1019.3 mb 0.00 in0.0 mm 0.00 in0.0 mm 0.00 in0.0 mm
01:05 AM 74.6°F23.7°C 73.4°F23.0°C 96% Calm Calm -- 30.10 in1019.3 mb 0.00 in0.0 mm 0.00 in0.0 mm 0.00 in0.0 mm
01:00 AM 74.6°F23.7°C 73.4°F23.0°C 96% Calm Calm -- 30.11 in1019.6 mb 0.00 in0.0 mm 0.00 in0.0 mm 0.00 in0.0 mm
12:55 AM 74.7°F23.7°C 73.5°F23.1°C 96% Calm Calm -- 30.11 in1019.6 mb 0.00 in0.0 mm 0.00 in0.0 mm 0.00 in0.0 mm
12:50 AM 74.6°F23.7°C 73.4°F23.0°C 96% Calm Calm -- 30.10 in1019.3 mb 0.00 in0.0 mm 0.00 in0.0 mm 0.00 in0.0 mm
12:45 AM 74.7°F23.7°C 73.5°F23.1°C 96% Calm Calm -- 30.11 in1019.6 mb 0.00 in0.0 mm 0.00 in0.0 mm 0.00 in0.0 mm
12:40 AM 74.7°F23.7°C 73.5°F23.1°C 96% Calm Calm -- 30.11 in1019.6 mb 0.00 in0.0 mm 0.00 in0.0 mm 0.00 in0.0 mm
12:35 AM 74.7°F23.7°C 73.5°F23.1°C 96% Calm Calm -- 30.11 in1019.6 mb 0.00 in0.0 mm 0.00 in0.0 mm 0.00 in0.0 mm
12:30 AM 74.7°F23.7°C 73.5°F23.1°C 96% Calm Calm -- 30.11 in1019.6 mb 0.00 in0.0 mm 0.00 in0.0 mm 0.00 in0.0 mm
12:25 AM 74.8°F23.8°C 73.6°F23.1°C 96% Calm Calm -- 30.11 in1019.6 mb 0.00 in0.0 mm 0.00 in0.0 mm 0.00 in0.0 mm
12:20 AM 74.8°F23.8°C 73.3°F22.9°C 95% Calm Calm -- 30.11 in1019.6 mb 0.00 in0.0 mm 0.00 in0.0 mm 0.00 in0.0 mm
12:15 AM 74.8°F23.8°C 73.3°F22.9°C 95% Calm Calm -- 30.11 in1019.6 mb 0.00 in0.0 mm 0.00 in0.0 mm 0.00 in0.0 mm
12:10 AM 74.8°F23.8°C 73.3°F22.9°C 95% Calm Calm -- 30.11 in1019.6 mb 0.00 in0.0 mm 0.00 in0.0 mm 0.00 in0.0 mm
12:05 AM 74.9°F23.8°C 73.4°F23.0°C 95% Calm Calm -- 30.12 in1020.0 mb 0.00 in0.0 mm 0.00 in0.0 mm 0.00 in0.0 mm
12:00 AM 74.9°F23.8°C 73.4°F23.0°C 95% Calm Calm -- 30.11 in1019.6 mb 0.00 in0.0 mm 0.00 in0.0 mm 0.00 in0.0 mm